sensor_id;sensor_type;location;lat;lon;timestamp;P1;durP1;ratioP1;P2;durP2;ratioP2
46777;SDS011;32536;47.128;8.746;2022-12-18T00:01:27;5.25;;;2.15;;
46777;SDS011;32536;47.128;8.746;2022-12-18T00:03:59;3.50;;;1.95;;
46777;SDS011;32536;47.128;8.746;2022-12-18T00:06:32;1.85;;;1.48;;
46777;SDS011;32536;47.128;8.746;2022-12-18T00:09:00;2.55;;;1.83;;
46777;SDS011;32536;47.128;8.746;2022-12-18T00:11:29;2.95;;;1.85;;
46777;SDS011;32536;47.128;8.746;2022-12-18T00:13:58;2.80;;;1.30;;
46777;SDS011;32536;47.128;8.746;2022-12-18T00:16:26;2.85;;;1.95;;
46777;SDS011;32536;47.128;8.746;2022-12-18T00:18:56;2.72;;;1.83;;
46777;SDS011;32536;47.128;8.746;2022-12-18T00:21:38;3.50;;;2.38;;
46777;SDS011;32536;47.128;8.746;2022-12-18T00:24:05;3.15;;;1.77;;
46777;SDS011;32536;47.128;8.746;2022-12-18T00:26:33;3.13;;;2.38;;
46777;SDS011;32536;47.128;8.746;2022-12-18T00:29:03;3.50;;;1.85;;
46777;SDS011;32536;47.128;8.746;2022-12-18T00:31:39;3.22;;;1.73;;
46777;SDS011;32536;47.128;8.746;2022-12-18T00:34:08;3.30;;;1.60;;
46777;SDS011;32536;47.128;8.746;2022-12-18T00:36:38;2.78;;;1.52;;
46777;SDS011;32536;47.128;8.746;2022-12-18T00:39:05;1.83;;;1.45;;
46777;SDS011;32536;47.128;8.746;2022-12-18T00:41:32;1.60;;;1.48;;
46777;SDS011;32536;47.128;8.746;2022-12-18T00:44:17;2.25;;;1.48;;
46777;SDS011;32536;47.128;8.746;2022-12-18T00:46:45;1.70;;;1.60;;
46777;SDS011;32536;47.128;8.746;2022-12-18T00:49:14;2.40;;;1.42;;
46777;SDS011;32536;47.128;8.746;2022-12-18T00:51:42;2.25;;;1.55;;
46777;SDS011;32536;47.128;8.746;2022-12-18T00:54:09;2.70;;;1.65;;
46777;SDS011;32536;47.128;8.746;2022-12-18T00:56:37;4.38;;;2.40;;
46777;SDS011;32536;47.128;8.746;2022-12-18T00:59:05;3.70;;;1.92;;
46777;SDS011;32536;47.128;8.746;2022-12-18T01:01:32;4.43;;;2.58;;
46777;SDS011;32536;47.128;8.746;2022-12-18T01:04:00;4.97;;;4.13;;
46777;SDS011;32536;47.128;8.746;2022-12-18T01:06:28;4.10;;;2.47;;
46777;SDS011;32536;47.128;8.746;2022-12-18T01:08:55;3.13;;;2.45;;
46777;SDS011;32536;47.128;8.746;2022-12-18T01:11:22;4.80;;;4.15;;
46777;SDS011;32536;47.128;8.746;2022-12-18T01:13:51;2.97;;;1.95;;
46777;SDS011;32536;47.128;8.746;2022-12-18T01:16:18;2.47;;;1.88;;
46777;SDS011;32536;47.128;8.746;2022-12-18T01:18:46;1.92;;;1.45;;
46777;SDS011;32536;47.128;8.746;2022-12-18T01:24:11;2.63;;;1.85;;
46777;SDS011;32536;47.128;8.746;2022-12-18T01:26:38;2.03;;;1.83;;
46777;SDS011;32536;47.128;8.746;2022-12-18T01:29:05;1.88;;;1.55;;
46777;SDS011;32536;47.128;8.746;2022-12-18T01:31:33;2.08;;;1.73;;
46777;SDS011;32536;47.128;8.746;2022-12-18T01:34:00;2.42;;;1.88;;
46777;SDS011;32536;47.128;8.746;2022-12-18T01:36:29;4.20;;;2.95;;
46777;SDS011;32536;47.128;8.746;2022-12-18T01:41:30;2.05;;;1.55;;
46777;SDS011;32536;47.128;8.746;2022-12-18T01:52:44;1.85;;;1.52;;
46777;SDS011;32536;47.128;8.746;2022-12-18T01:55:15;2.72;;;2.08;;
46777;SDS011;32536;47.128;8.746;2022-12-18T01:57:45;2.88;;;1.88;;
46777;SDS011;32536;47.128;8.746;2022-12-18T02:00:15;3.97;;;1.77;;
46777;SDS011;32536;47.128;8.746;2022-12-18T02:02:46;4.35;;;2.70;;
46777;SDS011;32536;47.128;8.746;2022-12-18T02:05:31;3.90;;;2.08;;
46777;SDS011;32536;47.128;8.746;2022-12-18T02:08:21;3.38;;;2.45;;
46777;SDS011;32536;47.128;8.746;2022-12-18T02:19:51;3.42;;;1.85;;
46777;SDS011;32536;47.128;8.746;2022-12-18T02:28:28;4.75;;;2.20;;
46777;SDS011;32536;47.128;8.746;2022-12-18T02:31:01;4.68;;;2.75;;
46777;SDS011;32536;47.128;8.746;2022-12-18T02:33:32;5.15;;;2.70;;
46777;SDS011;32536;47.128;8.746;2022-12-18T02:36:00;3.42;;;2.33;;
46777;SDS011;32536;47.128;8.746;2022-12-18T02:38:29;3.63;;;2.33;;
46777;SDS011;32536;47.128;8.746;2022-12-18T02:40:57;3.45;;;1.95;;
46777;SDS011;32536;47.128;8.746;2022-12-18T02:43:25;4.15;;;1.88;;
46777;SDS011;32536;47.128;8.746;2022-12-18T02:45:53;3.75;;;2.08;;
46777;SDS011;32536;47.128;8.746;2022-12-18T02:48:24;3.33;;;2.03;;
46777;SDS011;32536;47.128;8.746;2022-12-18T02:51:03;3.10;;;2.13;;
46777;SDS011;32536;47.128;8.746;2022-12-18T02:53:58;3.55;;;2.33;;
46777;SDS011;32536;47.128;8.746;2022-12-18T02:56:35;2.95;;;2.03;;
46777;SDS011;32536;47.128;8.746;2022-12-18T02:59:19;2.60;;;1.77;;
46777;SDS011;32536;47.128;8.746;2022-12-18T03:01:57;5.18;;;2.92;;
46777;SDS011;32536;47.128;8.746;2022-12-18T03:07:32;6.35;;;2.03;;
46777;SDS011;32536;47.128;8.746;2022-12-18T03:10:24;4.00;;;2.10;;
46777;SDS011;32536;47.128;8.746;2022-12-18T03:13:00;3.75;;;3.15;;
46777;SDS011;32536;47.128;8.746;2022-12-18T03:15:35;5.65;;;2.33;;
46777;SDS011;32536;47.128;8.746;2022-12-18T03:18:12;2.72;;;1.67;;
46777;SDS011;32536;47.128;8.746;2022-12-18T03:20:55;3.38;;;2.42;;
46777;SDS011;32536;47.128;8.746;2022-12-18T03:23:29;3.00;;;2.25;;
46777;SDS011;32536;47.128;8.746;2022-12-18T03:26:05;2.15;;;1.42;;
46777;SDS011;32536;47.128;8.746;2022-12-18T03:31:06;1.88;;;1.75;;
46777;SDS011;32536;47.128;8.746;2022-12-18T03:33:41;2.42;;;1.52;;
46777;SDS011;32536;47.128;8.746;2022-12-18T03:36:17;2.30;;;1.88;;
46777;SDS011;32536;47.128;8.746;2022-12-18T03:38:44;2.90;;;2.45;;
46777;SDS011;32536;47.128;8.746;2022-12-18T03:46:53;2.80;;;2.25;;
46777;SDS011;32536;47.128;8.746;2022-12-18T03:52:15;4.00;;;1.95;;
46777;SDS011;32536;47.128;8.746;2022-12-18T03:54:56;3.92;;;1.73;;
46777;SDS011;32536;47.128;8.746;2022-12-18T03:57:27;4.00;;;1.80;;
46777;SDS011;32536;47.128;8.746;2022-12-18T04:00:31;3.45;;;2.25;;
46777;SDS011;32536;47.128;8.746;2022-12-18T04:02:51;2.22;;;1.45;;
46777;SDS011;32536;47.128;8.746;2022-12-18T04:05:21;3.35;;;2.28;;
46777;SDS011;32536;47.128;8.746;2022-12-18T04:07:51;5.85;;;2.33;;
46777;SDS011;32536;47.128;8.746;2022-12-18T04:10:19;5.72;;;2.55;;
46777;SDS011;32536;47.128;8.746;2022-12-18T04:12:46;3.58;;;2.08;;
46777;SDS011;32536;47.128;8.746;2022-12-18T04:15:13;4.35;;;2.30;;
46777;SDS011;32536;47.128;8.746;2022-12-18T04:17:43;4.05;;;3.63;;
46777;SDS011;32536;47.128;8.746;2022-12-18T04:20:15;5.28;;;2.35;;
46777;SDS011;32536;47.128;8.746;2022-12-18T04:22:43;3.42;;;2.13;;
46777;SDS011;32536;47.128;8.746;2022-12-18T04:25:09;2.58;;;1.83;;
46777;SDS011;32536;47.128;8.746;2022-12-18T04:27:37;3.47;;;1.85;;
46777;SDS011;32536;47.128;8.746;2022-12-18T04:30:04;3.03;;;2.25;;
46777;SDS011;32536;47.128;8.746;2022-12-18T04:32:33;4.45;;;2.35;;
46777;SDS011;32536;47.128;8.746;2022-12-18T04:35:00;5.40;;;2.53;;
46777;SDS011;32536;47.128;8.746;2022-12-18T04:37:29;3.40;;;1.88;;
46777;SDS011;32536;47.128;8.746;2022-12-18T04:39:56;4.53;;;2.40;;
46777;SDS011;32536;47.128;8.746;2022-12-18T04:42:23;4.53;;;2.58;;
46777;SDS011;32536;47.128;8.746;2022-12-18T04:44:50;6.13;;;4.78;;
46777;SDS011;32536;47.128;8.746;2022-12-18T04:47:16;7.03;;;3.00;;
46777;SDS011;32536;47.128;8.746;2022-12-18T04:49:43;5.97;;;2.13;;
46777;SDS011;32536;47.128;8.746;2022-12-18T04:52:10;5.13;;;2.75;;
46777;SDS011;32536;47.128;8.746;2022-12-18T04:54:37;5.25;;;2.38;;
46777;SDS011;32536;47.128;8.746;2022-12-18T04:57:03;5.93;;;2.95;;
46777;SDS011;32536;47.128;8.746;2022-12-18T04:59:30;5.43;;;2.72;;
46777;SDS011;32536;47.128;8.746;2022-12-18T05:01:57;4.60;;;2.58;;
46777;SDS011;32536;47.128;8.746;2022-12-18T05:04:24;3.35;;;2.28;;
46777;SDS011;32536;47.128;8.746;2022-12-18T05:06:51;7.45;;;3.03;;
46777;SDS011;32536;47.128;8.746;2022-12-18T05:09:17;5.70;;;3.28;;
46777;SDS011;32536;47.128;8.746;2022-12-18T05:11:44;5.80;;;2.45;;
46777;SDS011;32536;47.128;8.746;2022-12-18T05:14:12;4.85;;;2.05;;
46777;SDS011;32536;47.128;8.746;2022-12-18T05:16:39;8.48;;;2.65;;
46777;SDS011;32536;47.128;8.746;2022-12-18T05:19:05;5.38;;;3.42;;
46777;SDS011;32536;47.128;8.746;2022-12-18T05:24:23;3.40;;;1.70;;
46777;SDS011;32536;47.128;8.746;2022-12-18T05:26:50;5.85;;;2.78;;
46777;SDS011;32536;47.128;8.746;2022-12-18T05:29:17;4.75;;;2.35;;
46777;SDS011;32536;47.128;8.746;2022-12-18T05:31:44;4.72;;;2.50;;
46777;SDS011;32536;47.128;8.746;2022-12-18T05:34:10;5.60;;;2.75;;
46777;SDS011;32536;47.128;8.746;2022-12-18T05:36:37;4.53;;;2.60;;
46777;SDS011;32536;47.128;8.746;2022-12-18T05:39:04;6.60;;;5.03;;
46777;SDS011;32536;47.128;8.746;2022-12-18T05:41:31;8.32;;;3.67;;
46777;SDS011;32536;47.128;8.746;2022-12-18T05:43:58;3.53;;;1.98;;
46777;SDS011;32536;47.128;8.746;2022-12-18T05:46:25;5.90;;;3.20;;
46777;SDS011;32536;47.128;8.746;2022-12-18T05:48:52;5.28;;;3.25;;
46777;SDS011;32536;47.128;8.746;2022-12-18T05:51:19;4.32;;;2.30;;
46777;SDS011;32536;47.128;8.746;2022-12-18T05:56:33;4.10;;;2.35;;
46777;SDS011;32536;47.128;8.746;2022-12-18T05:59:00;6.03;;;3.33;;
46777;SDS011;32536;47.128;8.746;2022-12-18T06:01:27;5.03;;;3.60;;
46777;SDS011;32536;47.128;8.746;2022-12-18T06:03:54;4.55;;;2.35;;
46777;SDS011;32536;47.128;8.746;2022-12-18T06:06:25;3.75;;;1.83;;
46777;SDS011;32536;47.128;8.746;2022-12-18T06:08:54;2.58;;;2.00;;
46777;SDS011;32536;47.128;8.746;2022-12-18T06:11:23;2.92;;;1.67;;
46777;SDS011;32536;47.128;8.746;2022-12-18T06:13:52;2.33;;;1.65;;
46777;SDS011;32536;47.128;8.746;2022-12-18T06:16:20;2.80;;;1.70;;
46777;SDS011;32536;47.128;8.746;2022-12-18T06:18:47;1.55;;;1.02;;
46777;SDS011;32536;47.128;8.746;2022-12-18T06:21:13;3.17;;;2.08;;
46777;SDS011;32536;47.128;8.746;2022-12-18T06:23:40;3.40;;;1.70;;
46777;SDS011;32536;47.128;8.746;2022-12-18T06:26:08;2.70;;;1.90;;
46777;SDS011;32536;47.128;8.746;2022-12-18T06:28:37;2.15;;;1.65;;
46777;SDS011;32536;47.128;8.746;2022-12-18T06:31:05;2.45;;;1.50;;
46777;SDS011;32536;47.128;8.746;2022-12-18T06:33:32;2.83;;;1.40;;
46777;SDS011;32536;47.128;8.746;2022-12-18T06:36:04;2.38;;;1.25;;
46777;SDS011;32536;47.128;8.746;2022-12-18T06:38:38;3.33;;;2.03;;
46777;SDS011;32536;47.128;8.746;2022-12-18T06:41:07;4.07;;;1.73;;
46777;SDS011;32536;47.128;8.746;2022-12-18T06:43:42;4.03;;;1.95;;
46777;SDS011;32536;47.128;8.746;2022-12-18T06:46:10;1.90;;;1.50;;
46777;SDS011;32536;47.128;8.746;2022-12-18T06:48:37;3.05;;;2.38;;
46777;SDS011;32536;47.128;8.746;2022-12-18T06:51:04;5.35;;;2.22;;
46777;SDS011;32536;47.128;8.746;2022-12-18T06:53:31;3.55;;;1.98;;
46777;SDS011;32536;47.128;8.746;2022-12-18T06:55:59;2.55;;;1.77;;
46777;SDS011;32536;47.128;8.746;2022-12-18T06:58:28;3.65;;;1.88;;
46777;SDS011;32536;47.128;8.746;2022-12-18T07:00:59;3.17;;;1.88;;
46777;SDS011;32536;47.128;8.746;2022-12-18T07:03:31;6.85;;;4.35;;
46777;SDS011;32536;47.128;8.746;2022-12-18T07:05:58;7.25;;;5.43;;
46777;SDS011;32536;47.128;8.746;2022-12-18T07:08:25;6.93;;;3.13;;
46777;SDS011;32536;47.128;8.746;2022-12-18T07:10:52;5.32;;;2.80;;
46777;SDS011;32536;47.128;8.746;2022-12-18T07:13:19;7.97;;;3.20;;
46777;SDS011;32536;47.128;8.746;2022-12-18T07:15:46;5.90;;;2.60;;
46777;SDS011;32536;47.128;8.746;2022-12-18T07:18:13;6.72;;;3.33;;
46777;SDS011;32536;47.128;8.746;2022-12-18T07:20:39;6.40;;;4.70;;
46777;SDS011;32536;47.128;8.746;2022-12-18T07:23:06;5.35;;;3.63;;
46777;SDS011;32536;47.128;8.746;2022-12-18T07:25:34;6.03;;;3.08;;
46777;SDS011;32536;47.128;8.746;2022-12-18T07:28:01;4.93;;;2.60;;
46777;SDS011;32536;47.128;8.746;2022-12-18T07:30:28;7.10;;;3.28;;
46777;SDS011;32536;47.128;8.746;2022-12-18T07:32:55;6.78;;;3.05;;
46777;SDS011;32536;47.128;8.746;2022-12-18T07:35:22;4.88;;;2.50;;
46777;SDS011;32536;47.128;8.746;2022-12-18T07:37:49;3.97;;;1.77;;
46777;SDS011;32536;47.128;8.746;2022-12-18T07:40:15;3.38;;;2.10;;
46777;SDS011;32536;47.128;8.746;2022-12-18T07:42:42;2.97;;;2.08;;
46777;SDS011;32536;47.128;8.746;2022-12-18T07:45:09;4.57;;;2.50;;
46777;SDS011;32536;47.128;8.746;2022-12-18T07:47:36;7.90;;;4.82;;
46777;SDS011;32536;47.128;8.746;2022-12-18T07:50:03;10.50;;;7.22;;
46777;SDS011;32536;47.128;8.746;2022-12-18T07:52:31;9.23;;;5.05;;
46777;SDS011;32536;47.128;8.746;2022-12-18T07:54:58;7.40;;;4.10;;
46777;SDS011;32536;47.128;8.746;2022-12-18T07:57:25;9.43;;;3.55;;
46777;SDS011;32536;47.128;8.746;2022-12-18T07:59:51;6.82;;;4.47;;
46777;SDS011;32536;47.128;8.746;2022-12-18T08:02:18;6.28;;;3.47;;
46777;SDS011;32536;47.128;8.746;2022-12-18T08:04:45;6.43;;;3.10;;
46777;SDS011;32536;47.128;8.746;2022-12-18T08:07:12;4.22;;;2.25;;
46777;SDS011;32536;47.128;8.746;2022-12-18T08:09:39;7.55;;;2.95;;
46777;SDS011;32536;47.128;8.746;2022-12-18T08:12:06;6.68;;;3.38;;
46777;SDS011;32536;47.128;8.746;2022-12-18T08:14:32;8.77;;;4.82;;
46777;SDS011;32536;47.128;8.746;2022-12-18T08:16:59;9.73;;;4.20;;
46777;SDS011;32536;47.128;8.746;2022-12-18T08:19:26;7.97;;;3.92;;
46777;SDS011;32536;47.128;8.746;2022-12-18T08:22:08;5.40;;;3.15;;
46777;SDS011;32536;47.128;8.746;2022-12-18T08:24:34;9.30;;;5.80;;
46777;SDS011;32536;47.128;8.746;2022-12-18T08:27:01;6.70;;;3.63;;
46777;SDS011;32536;47.128;8.746;2022-12-18T08:29:28;4.43;;;2.17;;
46777;SDS011;32536;47.128;8.746;2022-12-18T08:31:55;2.92;;;1.90;;
46777;SDS011;32536;47.128;8.746;2022-12-18T08:34:22;1.95;;;1.50;;
46777;SDS011;32536;47.128;8.746;2022-12-18T08:36:49;4.30;;;1.95;;
46777;SDS011;32536;47.128;8.746;2022-12-18T08:39:16;4.40;;;4.00;;
46777;SDS011;32536;47.128;8.746;2022-12-18T08:41:43;3.38;;;2.05;;
46777;SDS011;32536;47.128;8.746;2022-12-18T08:44:29;2.35;;;1.80;;
46777;SDS011;32536;47.128;8.746;2022-12-18T08:47:06;6.68;;;2.42;;
46777;SDS011;32536;47.128;8.746;2022-12-18T08:49:33;4.28;;;1.83;;
46777;SDS011;32536;47.128;8.746;2022-12-18T08:52:01;4.03;;;3.28;;
46777;SDS011;32536;47.128;8.746;2022-12-18T08:54:28;2.63;;;1.58;;
46777;SDS011;32536;47.128;8.746;2022-12-18T08:56:55;6.93;;;3.63;;
46777;SDS011;32536;47.128;8.746;2022-12-18T08:59:22;5.22;;;2.55;;
46777;SDS011;32536;47.128;8.746;2022-12-18T09:01:49;8.25;;;4.25;;
46777;SDS011;32536;47.128;8.746;2022-12-18T09:04:16;8.35;;;4.35;;
46777;SDS011;32536;47.128;8.746;2022-12-18T09:06:43;9.57;;;4.38;;
46777;SDS011;32536;47.128;8.746;2022-12-18T09:09:10;12.45;;;6.13;;
46777;SDS011;32536;47.128;8.746;2022-12-18T09:11:37;14.57;;;8.73;;
46777;SDS011;32536;47.128;8.746;2022-12-18T09:14:04;15.70;;;6.57;;
46777;SDS011;32536;47.128;8.746;2022-12-18T09:16:31;13.75;;;6.85;;
46777;SDS011;32536;47.128;8.746;2022-12-18T09:19:00;13.93;;;7.30;;
46777;SDS011;32536;47.128;8.746;2022-12-18T09:21:30;14.35;;;7.95;;
46777;SDS011;32536;47.128;8.746;2022-12-18T09:23:59;21.60;;;7.82;;
46777;SDS011;32536;47.128;8.746;2022-12-18T09:26:26;19.23;;;7.72;;
46777;SDS011;32536;47.128;8.746;2022-12-18T09:28:53;16.42;;;7.82;;
46777;SDS011;32536;47.128;8.746;2022-12-18T09:31:21;13.68;;;6.53;;
46777;SDS011;32536;47.128;8.746;2022-12-18T09:33:50;15.05;;;6.63;;
46777;SDS011;32536;47.128;8.746;2022-12-18T09:36:17;8.80;;;5.43;;
46777;SDS011;32536;47.128;8.746;2022-12-18T09:38:45;8.85;;;4.75;;
46777;SDS011;32536;47.128;8.746;2022-12-18T09:46:51;11.32;;;5.20;;
46777;SDS011;32536;47.128;8.746;2022-12-18T09:49:19;5.95;;;3.63;;
46777;SDS011;32536;47.128;8.746;2022-12-18T09:52:05;5.05;;;3.58;;
46777;SDS011;32536;47.128;8.746;2022-12-18T09:54:46;6.50;;;4.57;;
46777;SDS011;32536;47.128;8.746;2022-12-18T09:57:23;5.10;;;2.30;;
46777;SDS011;32536;47.128;8.746;2022-12-18T09:59:55;8.35;;;4.18;;
46777;SDS011;32536;47.128;8.746;2022-12-18T10:02:31;8.52;;;4.55;;
46777;SDS011;32536;47.128;8.746;2022-12-18T10:10:27;4.03;;;2.20;;
46777;SDS011;32536;47.128;8.746;2022-12-18T10:13:18;4.35;;;2.95;;
46777;SDS011;32536;47.128;8.746;2022-12-18T10:16:08;3.50;;;2.42;;
46777;SDS011;32536;47.128;8.746;2022-12-18T10:18:50;5.13;;;3.03;;
46777;SDS011;32536;47.128;8.746;2022-12-18T10:28:08;3.22;;;1.67;;
46777;SDS011;32536;47.128;8.746;2022-12-18T10:30:40;3.22;;;1.85;;
46777;SDS011;32536;47.128;8.746;2022-12-18T10:33:15;3.83;;;2.70;;
46777;SDS011;32536;47.128;8.746;2022-12-18T10:35:47;2.55;;;1.83;;
46777;SDS011;32536;47.128;8.746;2022-12-18T10:40:55;2.90;;;1.85;;
46777;SDS011;32536;47.128;8.746;2022-12-18T10:48:55;4.50;;;2.17;;
46777;SDS011;32536;47.128;8.746;2022-12-18T10:54:01;4.68;;;2.63;;
46777;SDS011;32536;47.128;8.746;2022-12-18T10:56:43;3.90;;;2.50;;
46777;SDS011;32536;47.128;8.746;2022-12-18T10:59:12;5.43;;;2.70;;
46777;SDS011;32536;47.128;8.746;2022-12-18T11:01:54;5.30;;;3.08;;
46777;SDS011;32536;47.128;8.746;2022-12-18T11:04:26;3.75;;;2.30;;
46777;SDS011;32536;47.128;8.746;2022-12-18T11:07:02;5.28;;;2.95;;
46777;SDS011;32536;47.128;8.746;2022-12-18T11:09:33;5.25;;;4.28;;
46777;SDS011;32536;47.128;8.746;2022-12-18T11:12:01;3.75;;;2.30;;
46777;SDS011;32536;47.128;8.746;2022-12-18T11:14:52;5.47;;;3.08;;
46777;SDS011;32536;47.128;8.746;2022-12-18T11:17:29;5.13;;;3.13;;
46777;SDS011;32536;47.128;8.746;2022-12-18T11:20:02;4.78;;;2.47;;
46777;SDS011;32536;47.128;8.746;2022-12-18T11:22:53;7.05;;;4.03;;
46777;SDS011;32536;47.128;8.746;2022-12-18T11:25:32;4.88;;;2.15;;
46777;SDS011;32536;47.128;8.746;2022-12-18T11:28:00;4.63;;;1.92;;
46777;SDS011;32536;47.128;8.746;2022-12-18T11:30:48;4.78;;;4.20;;
46777;SDS011;32536;47.128;8.746;2022-12-18T11:33:16;5.72;;;2.53;;
46777;SDS011;32536;47.128;8.746;2022-12-18T11:35:48;5.22;;;2.75;;
46777;SDS011;32536;47.128;8.746;2022-12-18T11:50:42;4.05;;;2.47;;
46777;SDS011;32536;47.128;8.746;2022-12-18T11:53:16;3.78;;;2.55;;
46777;SDS011;32536;47.128;8.746;2022-12-18T12:15:32;3.63;;;1.92;;
46777;SDS011;32536;47.128;8.746;2022-12-18T12:18:31;4.72;;;3.15;;
46777;SDS011;32536;47.128;8.746;2022-12-18T12:36:03;5.72;;;3.35;;
46777;SDS011;32536;47.128;8.746;2022-12-18T12:39:10;2.97;;;2.67;;
46777;SDS011;32536;47.128;8.746;2022-12-18T12:41:44;2.75;;;1.73;;
46777;SDS011;32536;47.128;8.746;2022-12-18T12:47:27;3.42;;;2.10;;
46777;SDS011;32536;47.128;8.746;2022-12-18T12:50:05;4.10;;;2.58;;
46777;SDS011;32536;47.128;8.746;2022-12-18T12:52:43;5.03;;;3.03;;
46777;SDS011;32536;47.128;8.746;2022-12-18T12:55:17;6.18;;;3.10;;
46777;SDS011;32536;47.128;8.746;2022-12-18T12:57:51;6.97;;;4.18;;
46777;SDS011;32536;47.128;8.746;2022-12-18T13:00:27;5.40;;;4.40;;
46777;SDS011;32536;47.128;8.746;2022-12-18T13:06:13;4.80;;;3.45;;
46777;SDS011;32536;47.128;8.746;2022-12-18T13:09:01;4.97;;;3.63;;
46777;SDS011;32536;47.128;8.746;2022-12-18T13:11:34;5.05;;;3.70;;
46777;SDS011;32536;47.128;8.746;2022-12-18T13:14:37;6.00;;;3.70;;
46777;SDS011;32536;47.128;8.746;2022-12-18T13:19:51;7.28;;;3.85;;
46777;SDS011;32536;47.128;8.746;2022-12-18T13:22:34;8.38;;;4.80;;
46777;SDS011;32536;47.128;8.746;2022-12-18T13:25:26;4.50;;;2.85;;
46777;SDS011;32536;47.128;8.746;2022-12-18T13:28:10;8.77;;;5.43;;
46777;SDS011;32536;47.128;8.746;2022-12-18T13:30:42;8.07;;;6.20;;
46777;SDS011;32536;47.128;8.746;2022-12-18T13:35:51;4.80;;;2.58;;
46777;SDS011;32536;47.128;8.746;2022-12-18T13:38:38;6.00;;;3.58;;
46777;SDS011;32536;47.128;8.746;2022-12-18T13:51:53;2.80;;;1.92;;
46777;SDS011;32536;47.128;8.746;2022-12-18T13:57:02;4.03;;;2.78;;
46777;SDS011;32536;47.128;8.746;2022-12-18T13:59:34;3.72;;;2.78;;
46777;SDS011;32536;47.128;8.746;2022-12-18T14:02:27;3.10;;;2.28;;
46777;SDS011;32536;47.128;8.746;2022-12-18T14:04:54;4.95;;;3.30;;
46777;SDS011;32536;47.128;8.746;2022-12-18T14:07:24;3.80;;;1.75;;
46777;SDS011;32536;47.128;8.746;2022-12-18T14:09:55;3.83;;;2.28;;
46777;SDS011;32536;47.128;8.746;2022-12-18T14:12:29;3.53;;;2.67;;
46777;SDS011;32536;47.128;8.746;2022-12-18T14:17:54;4.55;;;2.97;;
46777;SDS011;32536;47.128;8.746;2022-12-18T14:20:25;4.03;;;3.10;;
46777;SDS011;32536;47.128;8.746;2022-12-18T14:22:54;4.60;;;2.85;;
46777;SDS011;32536;47.128;8.746;2022-12-18T14:25:23;7.30;;;4.45;;
46777;SDS011;32536;47.128;8.746;2022-12-18T14:28:14;4.93;;;3.15;;
46777;SDS011;32536;47.128;8.746;2022-12-18T14:30:42;4.68;;;2.63;;
46777;SDS011;32536;47.128;8.746;2022-12-18T14:35:57;6.63;;;3.88;;
46777;SDS011;32536;47.128;8.746;2022-12-18T14:38:35;7.13;;;4.65;;
46777;SDS011;32536;47.128;8.746;2022-12-18T14:41:06;5.75;;;2.65;;
46777;SDS011;32536;47.128;8.746;2022-12-18T14:43:40;5.20;;;3.75;;
46777;SDS011;32536;47.128;8.746;2022-12-18T14:51:23;11.82;;;7.45;;
46777;SDS011;32536;47.128;8.746;2022-12-18T14:53:53;7.88;;;4.68;;
46777;SDS011;32536;47.128;8.746;2022-12-18T14:56:22;5.40;;;3.53;;
46777;SDS011;32536;47.128;8.746;2022-12-18T15:04:01;5.28;;;3.67;;
46777;SDS011;32536;47.128;8.746;2022-12-18T15:06:31;3.85;;;3.13;;
46777;SDS011;32536;47.128;8.746;2022-12-18T15:09:04;4.68;;;3.30;;
46777;SDS011;32536;47.128;8.746;2022-12-18T15:11:48;4.50;;;3.05;;
46777;SDS011;32536;47.128;8.746;2022-12-18T15:14:40;4.10;;;3.13;;
46777;SDS011;32536;47.128;8.746;2022-12-18T15:17:18;9.90;;;4.50;;
46777;SDS011;32536;47.128;8.746;2022-12-18T15:19:48;9.02;;;5.68;;
46777;SDS011;32536;47.128;8.746;2022-12-18T15:22:33;8.20;;;4.05;;
46777;SDS011;32536;47.128;8.746;2022-12-18T15:25:03;6.47;;;4.88;;
46777;SDS011;32536;47.128;8.746;2022-12-18T15:27:56;4.03;;;1.92;;
46777;SDS011;32536;47.128;8.746;2022-12-18T15:30:24;4.88;;;4.38;;
46777;SDS011;32536;47.128;8.746;2022-12-18T15:32:52;4.75;;;3.10;;
46777;SDS011;32536;47.128;8.746;2022-12-18T15:35:43;6.13;;;4.13;;
46777;SDS011;32536;47.128;8.746;2022-12-18T15:38:10;5.72;;;4.50;;
46777;SDS011;32536;47.128;8.746;2022-12-18T15:40:37;6.82;;;4.97;;
46777;SDS011;32536;47.128;8.746;2022-12-18T15:43:04;7.53;;;5.70;;
46777;SDS011;32536;47.128;8.746;2022-12-18T15:45:52;9.25;;;6.43;;
46777;SDS011;32536;47.128;8.746;2022-12-18T15:48:22;6.70;;;3.38;;
46777;SDS011;32536;47.128;8.746;2022-12-18T15:50:50;6.32;;;4.50;;
46777;SDS011;32536;47.128;8.746;2022-12-18T15:53:21;5.70;;;4.03;;
46777;SDS011;32536;47.128;8.746;2022-12-18T15:55:47;5.28;;;3.85;;
46777;SDS011;32536;47.128;8.746;2022-12-18T15:58:33;3.22;;;2.30;;
46777;SDS011;32536;47.128;8.746;2022-12-18T16:01:00;4.00;;;2.22;;
46777;SDS011;32536;47.128;8.746;2022-12-18T16:03:27;4.15;;;3.00;;
46777;SDS011;32536;47.128;8.746;2022-12-18T16:05:54;4.25;;;2.42;;
46777;SDS011;32536;47.128;8.746;2022-12-18T16:08:21;4.40;;;2.40;;
46777;SDS011;32536;47.128;8.746;2022-12-18T16:10:48;4.28;;;1.77;;
46777;SDS011;32536;47.128;8.746;2022-12-18T16:13:15;4.70;;;3.25;;
46777;SDS011;32536;47.128;8.746;2022-12-18T16:15:45;4.32;;;2.20;;
46777;SDS011;32536;47.128;8.746;2022-12-18T16:18:12;4.65;;;3.45;;
46777;SDS011;32536;47.128;8.746;2022-12-18T16:20:39;4.20;;;3.22;;
46777;SDS011;32536;47.128;8.746;2022-12-18T16:23:06;3.50;;;2.42;;
46777;SDS011;32536;47.128;8.746;2022-12-18T16:25:33;4.47;;;2.97;;
46777;SDS011;32536;47.128;8.746;2022-12-18T16:28:00;3.42;;;1.40;;
46777;SDS011;32536;47.128;8.746;2022-12-18T16:30:27;4.45;;;2.88;;
46777;SDS011;32536;47.128;8.746;2022-12-18T16:32:59;5.28;;;2.70;;
46777;SDS011;32536;47.128;8.746;2022-12-18T16:35:26;7.60;;;4.75;;
46777;SDS011;32536;47.128;8.746;2022-12-18T16:37:53;8.65;;;5.28;;
46777;SDS011;32536;47.128;8.746;2022-12-18T16:40:20;7.40;;;3.60;;
46777;SDS011;32536;47.128;8.746;2022-12-18T16:42:46;9.40;;;6.90;;
46777;SDS011;32536;47.128;8.746;2022-12-18T16:45:15;6.13;;;3.20;;
46777;SDS011;32536;47.128;8.746;2022-12-18T16:47:43;6.70;;;3.42;;
46777;SDS011;32536;47.128;8.746;2022-12-18T16:50:11;10.70;;;6.00;;
46777;SDS011;32536;47.128;8.746;2022-12-18T16:52:38;8.15;;;5.00;;
46777;SDS011;32536;47.128;8.746;2022-12-18T16:55:06;8.07;;;4.95;;
46777;SDS011;32536;47.128;8.746;2022-12-18T16:57:33;20.85;;;7.88;;
46777;SDS011;32536;47.128;8.746;2022-12-18T17:00:00;10.00;;;5.40;;
46777;SDS011;32536;47.128;8.746;2022-12-18T17:02:27;19.58;;;11.13;;
46777;SDS011;32536;47.128;8.746;2022-12-18T17:04:54;14.27;;;7.15;;
46777;SDS011;32536;47.128;8.746;2022-12-18T17:07:23;17.40;;;8.48;;
46777;SDS011;32536;47.128;8.746;2022-12-18T17:09:51;13.98;;;8.45;;
46777;SDS011;32536;47.128;8.746;2022-12-18T17:12:18;12.90;;;6.32;;
46777;SDS011;32536;47.128;8.746;2022-12-18T17:14:46;13.88;;;6.75;;
46777;SDS011;32536;47.128;8.746;2022-12-18T17:17:13;15.70;;;7.47;;
46777;SDS011;32536;47.128;8.746;2022-12-18T17:19:39;19.13;;;8.23;;
46777;SDS011;32536;47.128;8.746;2022-12-18T17:22:06;17.20;;;7.45;;
46777;SDS011;32536;47.128;8.746;2022-12-18T17:25:16;13.50;;;6.90;;
46777;SDS011;32536;47.128;8.746;2022-12-18T17:27:43;9.60;;;5.30;;
46777;SDS011;32536;47.128;8.746;2022-12-18T17:30:10;13.90;;;6.20;;
46777;SDS011;32536;47.128;8.746;2022-12-18T17:32:37;10.98;;;5.35;;
46777;SDS011;32536;47.128;8.746;2022-12-18T17:35:04;18.42;;;8.68;;
46777;SDS011;32536;47.128;8.746;2022-12-18T17:37:31;19.10;;;10.45;;
46777;SDS011;32536;47.128;8.746;2022-12-18T17:39:58;13.95;;;7.43;;
46777;SDS011;32536;47.128;8.746;2022-12-18T17:42:25;13.68;;;7.15;;
46777;SDS011;32536;47.128;8.746;2022-12-18T17:44:52;11.38;;;7.25;;
46777;SDS011;32536;47.128;8.746;2022-12-18T17:47:18;8.70;;;5.45;;
46777;SDS011;32536;47.128;8.746;2022-12-18T17:49:45;11.23;;;6.43;;
46777;SDS011;32536;47.128;8.746;2022-12-18T17:52:12;6.53;;;3.40;;
46777;SDS011;32536;47.128;8.746;2022-12-18T17:54:39;7.88;;;4.32;;